Time;durP1;ratioP1;P1;durP2;ratioP2;P2;SDS_P1;SDS_P2;PMS_P1;PMS_P2;Temp;Humidity;BMP_temperature;BMP_pressure;BME280_temperature;BME280_humidity;BME280_pressure;Samples;Min_cycle;Max_cycle;Signal;HPM_P1;HPM_P2
2021/11/20 00:00:25;;;;;;;;;2.75;2.00;;;;;22.33;42.28;102837.91;4968464;28;46174;-65
2021/11/20 00:02:51;;;;;;;;;3.25;2.50;;;;;22.33;42.22;102843.22;4965941;28;45288;-65
2021/11/20 00:05:27;;;;;;;;;2.00;2.00;;;;;22.31;42.27;102842.50;4968902;28;45534;-65
2021/11/20 00:07:53;;;;;;;;;2.00;2.00;;;;;22.32;42.66;102840.72;4969240;28;45470;-64
2021/11/20 00:10:22;;;;;;;;;2.50;2.50;;;;;22.31;42.19;102839.03;4969801;28;45434;-65
2021/11/20 00:12:47;;;;;;;;;3.75;3.75;;;;;22.29;42.35;102831.22;4973438;28;45378;-65
2021/11/20 00:15:16;;;;;;;;;4.00;3.00;;;;;22.29;42.59;102836.50;4975341;28;45313;-65
2021/11/20 00:17:42;;;;;;;;;1.75;1.50;;;;;22.26;42.64;102829.66;4970432;28;45597;-65
2021/11/20 00:20:11;;;;;;;;;2.00;2.00;;;;;22.27;42.56;102835.81;4972510;28;46968;-65
2021/11/20 00:22:39;;;;;;;;;3.00;3.00;;;;;22.28;42.38;102830.38;4971583;28;45285;-65
2021/11/20 00:25:20;;;;;;;;;2.00;2.00;;;;;22.26;42.15;102829.66;4973343;28;45733;-65
2021/11/20 00:27:47;;;;;;;;;3.50;2.00;;;;;22.21;42.01;102823.91;4973285;28;45572;-65
2021/11/20 00:30:17;;;;;;;;;3.25;3.00;;;;;22.25;41.89;102829.81;4974998;28;47318;-65
2021/11/20 00:32:47;;;;;;;;;2.75;2.00;;;;;22.21;42.51;102818.63;4972785;28;45436;-65
2021/11/20 00:35:15;;;;;;;;;2.50;2.50;;;;;22.24;42.35;102825.47;4972574;28;45500;-65
2021/11/20 00:37:41;;;;;;;;;1.50;1.50;;;;;22.22;42.36;102822.13;4974230;28;45457;-65
2021/11/20 00:40:16;;;;;;;;;4.00;4.00;;;;;22.22;41.74;102820.31;4971562;28;45813;-65
2021/11/20 00:42:42;;;;;;;;;4.00;3.00;;;;;22.21;41.60;102817.78;4972981;28;45523;-65
2021/11/20 00:45:08;;;;;;;;;3.25;3.25;;;;;22.17;41.77;102810.06;4975055;28;45351;-65
2021/11/20 00:47:33;;;;;;;;;3.00;2.00;;;;;22.21;41.94;102828.38;4972958;28;45499;-65
2021/11/20 00:49:58;;;;;;;;;4.00;4.00;;;;;22.19;42.18;102817.91;4972343;28;45508;-65
2021/11/20 00:52:25;;;;;;;;;5.50;3.00;;;;;22.06;41.96;102795.13;4972798;28;45444;-65
2021/11/20 00:54:50;;;;;;;;;2.50;2.50;;;;;22.21;41.66;102818.63;4973275;28;45306;-65
2021/11/20 00:57:16;;;;;;;;;2.75;2.75;;;;;22.21;41.75;102809.81;4974665;28;45382;-65
2021/11/20 00:59:42;;;;;;;;;3.00;2.50;;;;;22.16;42.06;102794.31;4972627;28;45445;-65
2021/11/20 01:02:08;;;;;;;;;2.00;1.75;;;;;22.21;41.68;102807.16;4971058;28;45525;-65
2021/11/20 01:04:35;;;;;;;;;4.00;4.00;;;;;22.19;41.92;102802.00;4972388;28;45353;-65
2021/11/20 01:07:01;;;;;;;;;5.25;4.25;;;;;22.17;42.04;102806.59;4972950;28;45500;-65
2021/11/20 01:09:31;;;;;;;;;2.75;2.75;;;;;22.21;41.70;102812.47;4973778;28;47724;-65
2021/11/20 01:12:10;;;;;;;;;3.75;3.00;;;;;22.17;42.12;102801.31;4974012;28;45485;-65
2021/11/20 01:14:38;;;;;;;;;3.75;3.25;;;;;22.18;41.70;102792.38;4971522;28;45394;-65
2021/11/20 01:17:06;;;;;;;;;3.50;2.00;;;;;22.17;41.60;102785.41;4971317;28;45606;-65
2021/11/20 01:19:32;;;;;;;;;2.50;1.50;;;;;22.11;41.71;102770.88;4970837;28;46879;-65
2021/11/20 01:22:00;;;;;;;;;2.00;2.00;;;;;22.15;41.94;102763.47;4972523;28;45459;-65
2021/11/20 01:24:26;;;;;;;;;3.00;3.00;;;;;22.15;41.93;102772.25;4974006;28;45352;-65
2021/11/20 01:26:53;;;;;;;;;2.00;1.00;;;;;22.15;41.82;102774.06;4973143;28;45431;-65
2021/11/20 01:29:20;;;;;;;;;2.75;2.75;;;;;22.16;41.83;102773.09;4972229;28;46541;-65
2021/11/20 01:31:50;;;;;;;;;3.00;1.50;;;;;22.11;41.79;102770.00;4971855;28;45323;-64
2021/11/20 01:34:17;;;;;;;;;3.00;2.25;;;;;22.15;42.20;102777.56;4972494;28;45237;-65
2021/11/20 01:36:44;;;;;;;;;1.50;1.50;;;;;22.15;41.98;102766.13;4972369;28;45592;-65
2021/11/20 01:39:19;;;;;;;;;2.25;2.25;;;;;22.11;42.10;102760.25;4974168;28;46399;-65
2021/11/20 01:41:47;;;;;;;;;1.75;1.50;;;;;22.14;41.85;102769.75;4972717;28;45397;-65
2021/11/20 01:44:21;;;;;;;;;1.00;1.00;;;;;22.14;41.54;102765.31;4972115;28;45279;-65
2021/11/20 01:47:00;;;;;;;;;2.00;2.00;;;;;22.15;41.55;102766.13;4971825;28;45350;-65
2021/11/20 01:49:33;;;;;;;;;2.00;2.00;;;;;21.98;42.07;102733.97;4972075;28;46529;-65
2021/11/20 01:52:09;;;;;;;;;2.75;2.75;;;;;22.13;42.10;102760.97;4972189;28;45380;-65
2021/11/20 01:55:14;;;;;;;;;3.50;3.00;;;;;22.12;42.04;102759.28;4972442;28;45260;-65
2021/11/20 01:57:57;;;;;;;;;2.00;2.00;;;;;22.13;41.95;102763.59;5012815;28;45270;-66
2021/11/20 02:00:34;;;;;;;;;2.75;2.75;;;;;22.13;42.11;102768.06;5010240;28;46097;-66
2021/11/20 02:03:14;;;;;;;;;2.50;2.50;;;;;22.12;41.37;102753.97;5013767;28;45341;-65
2021/11/20 02:05:42;;;;;;;;;2.00;2.00;;;;;22.11;41.69;102752.31;5012121;28;45366;-65
2021/11/20 02:08:49;;;;;;;;;4.00;2.75;;;;;22.12;41.94;102747.84;5012306;28;45528;-65
2021/11/20 02:11:28;;;;;;;;;4.00;3.00;;;;;22.13;41.32;102760.97;5007203;28;45412;-65
2021/11/20 02:13:53;;;;;;;;;4.75;3.00;;;;;22.10;41.65;102750.63;5012104;28;47754;-65
2021/11/20 02:16:34;;;;;;;;;3.00;2.75;;;;;22.12;41.41;102750.50;5011961;28;45570;-65
2021/11/20 02:19:04;;;;;;;;;2.00;2.00;;;;;22.12;41.67;102756.63;4996389;28;45472;-65
2021/11/20 02:21:59;;;;;;;;;3.50;3.00;;;;;22.13;41.53;102755.66;5012760;28;45608;-65
2021/11/20 02:24:24;;;;;;;;;2.75;2.75;;;;;22.12;41.65;102748.66;5010307;28;45397;-65
2021/11/20 02:26:50;;;;;;;;;4.00;3.00;;;;;22.12;41.40;102746.00;5012284;28;45503;-65
2021/11/20 02:29:16;;;;;;;;;3.00;3.00;;;;;22.10;41.75;102737.38;5011740;28;52466;-65
2021/11/20 02:32:02;;;;;;;;;3.00;3.00;;;;;22.12;41.69;102750.50;4989938;28;45464;-65
2021/11/20 02:34:33;;;;;;;;;2.75;2.75;;;;;22.13;41.41;102738.91;4971386;28;45403;-65
2021/11/20 02:36:59;;;;;;;;;3.50;3.50;;;;;22.12;41.23;102738.06;4970558;28;45384;-65
2021/11/20 02:39:27;;;;;;;;;3.00;3.00;;;;;22.12;41.24;102735.41;4972786;28;45497;-65
2021/11/20 02:41:57;;;;;;;;;3.75;3.00;;;;;22.12;41.61;102740.72;4972495;28;45636;-65
2021/11/20 02:44:24;;;;;;;;;4.00;1.75;;;;;22.09;41.59;102734.84;4970956;28;45442;-65
2021/11/20 02:46:56;;;;;;;;;2.75;2.00;;;;;22.11;41.18;102728.44;4971410;28;45414;-65
2021/11/20 02:49:21;;;;;;;;;2.00;2.00;;;;;22.11;41.74;102720.50;4971367;28;45522;-65
2021/11/20 02:51:50;;;;;;;;;4.00;3.25;;;;;22.10;41.79;102712.66;4971437;28;45276;-65
2021/11/20 02:54:19;;;;;;;;;2.00;2.00;;;;;22.10;41.32;102710.84;4973511;28;45439;-65
2021/11/20 02:57:03;;;;;;;;;2.25;2.25;;;;;22.11;41.38;102709.03;4971268;28;45289;-65
2021/11/20 02:59:29;;;;;;;;;5.50;4.00;;;;;22.07;41.33;102701.34;4969186;28;45648;-65
2021/11/20 03:01:54;;;;;;;;;4.50;3.00;;;;;22.10;41.88;102699.41;4971069;28;46009;-65
2021/11/20 03:04:22;;;;;;;;;6.25;4.00;;;;;22.09;41.37;102692.44;4971293;28;45478;-65
2021/11/20 03:06:51;;;;;;;;;3.75;3.75;;;;;22.06;41.69;102688.25;4971371;28;45547;-65
2021/11/20 03:09:17;;;;;;;;;4.25;3.00;;;;;22.09;41.57;102689.78;4973218;28;45561;-65
2021/11/20 03:11:43;;;;;;;;;3.00;3.00;;;;;22.06;41.45;102689.09;4970880;28;46174;-64
2021/11/20 03:14:13;;;;;;;;;2.25;2.25;;;;;22.03;41.28;102678.75;4970549;28;45292;-66
2021/11/20 03:16:42;;;;;;;;;5.25;4.00;;;;;22.05;41.71;102679.47;4969552;28;45284;-65
2021/11/20 03:19:08;;;;;;;;;2.75;2.75;;;;;22.09;41.57;102676.53;4970959;28;45283;-65
2021/11/20 03:21:36;;;;;;;;;2.75;2.75;;;;;22.07;41.78;102664.25;4970906;28;46584;-65
2021/11/20 03:24:04;;;;;;;;;3.00;3.00;;;;;22.07;41.29;102666.06;4971036;28;45574;-65
2021/11/20 03:26:30;;;;;;;;;3.00;3.00;;;;;22.03;41.53;102660.19;4970816;28;45344;-65
2021/11/20 03:28:55;;;;;;;;;3.00;3.00;;;;;22.06;41.20;102664.41;4970470;28;45466;-65
2021/11/20 03:31:21;;;;;;;;;2.00;2.00;;;;;22.05;41.59;102662.72;4970977;28;46620;-65
2021/11/20 03:33:48;;;;;;;;;3.00;2.00;;;;;22.05;41.27;102654.75;4970833;28;45409;-65
2021/11/20 03:36:15;;;;;;;;;2.00;2.00;;;;;22.06;41.23;102656.44;4971670;28;45312;-65
2021/11/20 03:38:41;;;;;;;;;2.25;2.25;;;;;22.05;41.69;102646.81;4971376;28;45467;-65
2021/11/20 03:41:08;;;;;;;;;3.00;3.00;;;;;22.05;41.34;102652.09;4972194;28;46547;-65
2021/11/20 03:43:34;;;;;;;;;2.25;2.25;;;;;22.05;41.44;102639.69;4973299;28;45707;-65
2021/11/20 03:46:00;;;;;;;;;3.00;3.00;;;;;22.06;41.50;102638.72;4973771;28;45364;-65
2021/11/20 03:48:25;;;;;;;;;4.00;3.00;;;;;22.02;41.75;102623.22;4975063;28;45519;-65
2021/11/20 03:50:51;;;;;;;;;4.00;4.00;;;;;22.06;40.99;102638.72;4974346;28;46583;-65
2021/11/20 03:53:17;;;;;;;;;0.00;0.00;;;;;22.09;41.05;102642.06;4973582;28;45363;-65
2021/11/20 03:55:46;;;;;;;;;4.00;4.00;;;;;22.07;41.38;102642.19;4973675;28;45463;-65
2021/11/20 03:58:12;;;;;;;;;1.50;1.50;;;;;22.07;41.38;102635.09;4973258;28;45606;-65
2021/11/20 04:00:43;;;;;;;;;2.25;2.25;;;;;22.06;40.90;102636.09;4973345;28;46289;-65
2021/11/20 04:03:09;;;;;;;;;4.00;4.00;;;;;22.06;41.03;102632.59;4975473;28;45418;-65
2021/11/20 04:05:35;;;;;;;;;4.00;3.25;;;;;22.07;41.28;102627.13;4973384;28;45258;-65
2021/11/20 04:08:00;;;;;;;;;3.25;3.25;;;;;22.09;41.48;102624.38;4972699;28;45265;-65
2021/11/20 04:10:27;;;;;;;;;1.00;1.00;;;;;22.10;40.93;102626.03;4973390;28;46069;-65
2021/11/20 04:12:52;;;;;;;;;6.00;4.75;;;;;22.07;41.36;102615.69;4973180;28;45607;-66
2021/11/20 04:15:22;;;;;;;;;3.00;3.00;;;;;22.09;41.29;102616.41;4975424;28;45287;-65
2021/11/20 04:17:48;;;;;;;;;5.00;4.00;;;;;22.06;40.91;102621.97;4972890;28;45492;-65
2021/11/20 04:20:17;;;;;;;;;4.75;4.50;;;;;22.06;41.49;102614.88;4972662;28;45493;-65
2021/11/20 04:22:43;;;;;;;;;3.25;3.00;;;;;22.06;41.49;102616.69;4973182;28;45513;-65
2021/11/20 04:25:12;;;;;;;;;4.00;3.00;;;;;22.06;40.91;102609.56;4973344;28;45413;-65
2021/11/20 04:27:37;;;;;;;;;3.75;2.00;;;;;22.04;41.35;102600.09;4972930;28;45444;-65
2021/11/20 04:30:05;;;;;;;;;3.75;3.00;;;;;22.07;40.92;102599.78;4975056;28;46283;-65
2021/11/20 04:32:30;;;;;;;;;2.00;2.00;;;;;22.06;41.37;102603.44;4973025;28;45279;-65
2021/11/20 04:34:55;;;;;;;;;3.50;3.50;;;;;22.03;41.24;102596.59;4971527;28;45399;-65
2021/11/20 04:37:21;;;;;;;;;3.75;2.25;;;;;22.02;41.16;102589.59;4973364;28;45347;-65
2021/11/20 04:39:46;;;;;;;;;2.75;2.75;;;;;22.01;41.36;102585.28;4972950;28;45380;-66
2021/11/20 04:42:12;;;;;;;;;4.00;3.00;;;;;21.98;40.97;102580.25;4974628;28;45323;-65
2021/11/20 04:44:37;;;;;;;;;3.75;3.75;;;;;22.03;41.27;102583.34;4972901;28;45756;-65
2021/11/20 04:47:03;;;;;;;;;4.50;4.50;;;;;22.05;41.09;102593.78;4972903;28;45544;-65
2021/11/20 04:49:28;;;;;;;;;2.25;2.00;;;;;22.05;41.12;102586.69;4970182;28;47686;-65
2021/11/20 04:51:54;;;;;;;;;2.50;2.50;;;;;22.00;41.18;102582.75;4972953;28;45552;-65
2021/11/20 04:54:19;;;;;;;;;4.00;3.00;;;;;22.05;41.00;102585.84;4975244;28;45744;-65
2021/11/20 04:56:44;;;;;;;;;3.00;3.00;;;;;22.03;41.23;102585.16;4970810;28;45743;-65
2021/11/20 04:59:10;;;;;;;;;3.25;3.25;;;;;22.03;40.90;102583.34;4972303;28;45905;-65
2021/11/20 05:01:35;;;;;;;;;4.50;4.00;;;;;22.05;41.04;102585.84;4972842;28;45280;-65
2021/11/20 05:04:01;;;;;;;;;5.00;5.00;;;;;22.04;40.96;102582.34;4972837;28;45526;-65
2021/11/20 05:06:27;;;;;;;;;2.75;2.75;;;;;22.02;41.33;102584.31;4974179;28;45504;-65
2021/11/20 05:08:56;;;;;;;;;3.00;2.50;;;;;22.01;41.02;102580.00;4973254;28;46004;-65
2021/11/20 05:11:22;;;;;;;;;4.00;4.00;;;;;22.01;41.16;102581.81;4972069;28;45440;-65
2021/11/20 05:13:48;;;;;;;;;5.00;5.00;;;;;21.99;41.16;102570.50;4971449;28;45550;-65
2021/11/20 05:16:14;;;;;;;;;3.00;3.00;;;;;22.03;41.28;102572.75;4972757;28;45440;-65
2021/11/20 05:18:39;;;;;;;;;2.75;2.75;;;;;22.02;41.33;102581.66;4972515;28;46054;-65
2021/11/20 05:21:05;;;;;;;;;5.00;4.75;;;;;22.03;41.29;102570.09;4974333;28;45382;-65
2021/11/20 05:23:33;;;;;;;;;3.75;2.50;;;;;22.03;41.04;102572.75;4972423;28;45485;-65
2021/11/20 05:25:59;;;;;;;;;4.50;3.75;;;;;22.05;41.24;102575.25;4972028;28;45283;-65
2021/11/20 05:28:26;;;;;;;;;4.50;4.50;;;;;22.05;41.13;102573.44;4972184;28;46115;-65
2021/11/20 05:30:52;;;;;;;;;4.00;4.00;;;;;22.04;41.35;102570.94;4972637;28;45390;-65
2021/11/20 05:33:31;;;;;;;;;6.00;4.25;;;;;22.06;40.88;102572.47;4970362;28;45427;-65
2021/11/20 05:35:56;;;;;;;;;5.25;4.75;;;;;22.04;40.73;102571.75;4973690;28;45525;-65
2021/11/20 05:38:22;;;;;;;;;3.25;3.25;;;;;22.01;41.24;102566.75;4971587;28;46295;-65
2021/11/20 05:40:47;;;;;;;;;3.00;3.00;;;;;22.05;41.07;102577.88;4972198;28;45297;-65
2021/11/20 05:43:15;;;;;;;;;4.00;4.00;;;;;22.07;40.80;102578.59;4972414;28;45343;-65
2021/11/20 05:45:44;;;;;;;;;4.50;4.00;;;;;22.04;41.21;102574.41;4972519;28;45321;-65
2021/11/20 05:48:10;;;;;;;;;2.75;2.75;;;;;22.05;40.96;102573.44;4974046;28;45310;-65
2021/11/20 05:50:36;;;;;;;;;3.50;3.50;;;;;22.05;41.18;102576.09;4972001;28;45263;-65
2021/11/20 05:53:08;;;;;;;;;3.00;3.00;;;;;22.03;40.73;102564.78;4970416;28;45324;-65
2021/11/20 05:55:34;;;;;;;;;3.75;2.25;;;;;22.03;40.77;102567.44;4972108;28;45398;-65
2021/11/20 05:57:59;;;;;;;;;4.75;4.75;;;;;21.99;40.97;102560.72;4971883;28;46123;-65
2021/11/20 06:00:29;;;;;;;;;3.25;3.25;;;;;21.99;41.32;102558.06;4972784;28;45345;-65
2021/11/20 06:02:57;;;;;;;;;4.75;3.75;;;;;21.88;40.74;102537.84;4973096;28;45506;-65
2021/11/20 06:05:22;;;;;;;;;3.75;3.00;;;;;22.02;41.20;102560.44;4971658;28;45525;-65
2021/11/20 06:07:48;;;;;;;;;4.25;3.00;;;;;22.04;41.29;102565.63;4971499;28;45375;-65
2021/11/20 06:10:13;;;;;;;;;4.25;4.00;;;;;22.03;41.20;102569.25;4971880;28;45559;-65
2021/11/20 06:12:39;;;;;;;;;4.00;3.75;;;;;22.02;40.69;102556.94;4972398;28;45337;-65
2021/11/20 06:15:05;;;;;;;;;4.00;3.00;;;;;22.01;41.25;102561.44;4972305;28;45357;-65
2021/11/20 06:17:30;;;;;;;;;2.00;2.00;;;;;22.02;41.22;102555.16;4971567;28;48073;-65
2021/11/20 06:19:56;;;;;;;;;3.00;1.75;;;;;22.02;41.07;102560.44;4971205;28;45505;-65
2021/11/20 06:22:24;;;;;;;;;3.00;3.00;;;;;21.99;40.85;102557.25;4971763;28;45539;-65
2021/11/20 06:24:50;;;;;;;;;5.00;5.00;;;;;22.00;40.57;102556.25;4955368;28;45481;-65
2021/11/20 06:27:15;;;;;;;;;3.25;3.25;;;;;21.98;41.08;102544.97;4973349;28;45413;-65
2021/11/20 06:29:42;;;;;;;;;5.00;5.00;;;;;22.03;41.14;102563.94;4971598;28;45473;-65
2021/11/20 06:32:07;;;;;;;;;4.00;4.00;;;;;22.01;40.85;102566.75;4970325;28;45507;-65
2021/11/20 06:34:33;;;;;;;;;4.00;4.00;;;;;22.01;41.10;102557.94;4971509;28;45361;-65
2021/11/20 06:36:58;;;;;;;;;2.50;2.50;;;;;22.00;40.87;102556.25;4971298;28;45920;-65
2021/11/20 06:39:24;;;;;;;;;3.00;3.00;;;;;22.01;41.13;102557.94;4973112;28;45425;-65
2021/11/20 06:41:50;;;;;;;;;7.00;3.75;;;;;22.00;41.17;102553.63;4973005;28;45454;-65
2021/11/20 06:44:15;;;;;;;;;3.75;3.25;;;;;22.00;40.84;102554.44;4971510;28;45560;-65
2021/11/20 06:46:41;;;;;;;;;4.00;4.00;;;;;22.00;40.92;102562.41;4971133;28;46431;-65
2021/11/20 06:49:07;;;;;;;;;3.50;3.50;;;;;21.99;40.97;102554.59;4971711;28;45462;-65
2021/11/20 06:51:32;;;;;;;;;5.00;4.75;;;;;21.99;40.87;102554.59;4971995;28;45452;-65
2021/11/20 06:53:57;;;;;;;;;3.00;3.00;;;;;22.02;41.28;102562.25;4971211;28;45354;-65
2021/11/20 06:56:27;;;;;;;;;3.50;3.50;;;;;21.94;40.94;102549.69;4970889;28;46586;-65
2021/11/20 06:59:08;;;;;;;;;4.00;4.00;;;;;22.01;41.14;102566.75;4971114;28;45320;-65
2021/11/20 07:01:35;;;;;;;;;3.50;3.50;;;;;21.98;40.53;102564.38;4971227;28;45430;-65
2021/11/20 07:04:05;;;;;;;;;5.75;5.00;;;;;21.98;41.03;102558.22;4971317;28;45375;-69
2021/11/20 07:06:37;;;;;;;;;3.00;3.00;;;;;22.04;40.54;102568.28;4971663;28;45365;-65
2021/11/20 07:09:03;;;;;;;;;3.25;3.25;;;;;22.04;40.98;102565.63;4971210;28;45508;-65
2021/11/20 07:11:29;;;;;;;;;4.50;4.50;;;;;22.00;41.06;102559.75;4969785;28;45495;-65
2021/11/20 07:13:54;;;;;;;;;3.75;3.75;;;;;22.03;40.99;102556.84;4973146;28;45346;-65
2021/11/20 07:16:23;;;;;;;;;5.00;5.00;;;;;22.05;40.87;102554.03;4974089;28;45444;-65
2021/11/20 07:18:49;;;;;;;;;4.00;4.00;;;;;22.05;40.84;102554.88;4974079;28;45399;-66
2021/11/20 07:21:15;;;;;;;;;2.00;2.00;;;;;22.05;41.00;102559.34;4975411;28;45267;-65
2021/11/20 07:23:41;;;;;;;;;3.00;3.00;;;;;22.05;40.90;102561.97;4972798;28;45495;-65
2021/11/20 07:26:08;;;;;;;;;3.00;3.00;;;;;22.04;40.51;102568.28;4973699;28;45962;-65
2021/11/20 07:28:35;;;;;;;;;4.50;4.00;;;;;22.05;40.58;102562.81;4973659;28;45311;-65
2021/11/20 07:31:00;;;;;;;;;4.50;3.25;;;;;22.04;40.81;102561.13;4972538;28;45542;-64
2021/11/20 07:33:26;;;;;;;;;4.25;4.25;;;;;22.05;40.92;102567.28;4971093;28;45370;-65
2021/11/20 07:35:55;;;;;;;;;5.50;5.25;;;;;22.02;41.63;102555.16;4963007;28;45423;-65
2021/11/20 07:38:25;;;;;;;;;3.00;3.00;;;;;22.05;41.27;102559.34;4968408;28;45576;-64
2021/11/20 07:40:50;;;;;;;;;5.75;4.75;;;;;22.06;41.17;102567.16;4974109;28;45506;-65
2021/11/20 07:43:16;;;;;;;;;5.25;3.00;;;;;22.03;41.43;102556.84;4973434;28;45525;-64
2021/11/20 07:45:42;;;;;;;;;6.00;5.00;;;;;22.06;41.47;102566.31;4974238;28;45501;-65
2021/11/20 07:48:18;;;;;;;;;6.00;5.00;;;;;22.06;41.37;102561.03;4975785;28;45483;-66
2021/11/20 07:50:45;;;;;;;;;4.00;4.00;;;;;22.04;41.82;102550.53;4971296;28;45637;-65
2021/11/20 07:53:12;;;;;;;;;3.75;3.75;;;;;22.06;42.08;102548.63;4973723;28;45466;-65
2021/11/20 07:55:38;;;;;;;;;3.50;3.00;;;;;22.03;41.89;102542.75;4970720;28;45509;-65
2021/11/20 07:58:04;;;;;;;;;4.00;4.00;;;;;22.03;41.93;102543.59;4972855;28;45494;-66
2021/11/20 08:00:31;;;;;;;;;4.75;4.75;;;;;22.03;41.79;102538.28;4974614;28;45424;-67
2021/11/20 08:02:56;;;;;;;;;4.75;3.50;;;;;22.05;41.69;102544.28;4974697;28;45472;-66
2021/11/20 08:05:26;;;;;;;;;4.25;4.25;;;;;22.06;41.94;102540.66;4972934;28;46292;-67
2021/11/20 08:07:53;;;;;;;;;5.00;5.00;;;;;22.02;41.78;102533.09;4973597;28;45593;-71
2021/11/20 08:10:18;;;;;;;;;8.00;6.00;;;;;22.06;41.90;102537.16;4972040;28;45502;-67
2021/11/20 08:12:44;;;;;;;;;4.75;4.75;;;;;22.05;42.36;102535.47;4973524;28;45564;-67
2021/11/20 08:15:11;;;;;;;;;6.00;5.25;;;;;22.06;42.19;102545.13;4970677;28;47864;-68
2021/11/20 08:17:37;;;;;;;;;7.25;5.50;;;;;22.06;41.83;102534.50;4971729;28;45282;-66
2021/11/20 08:20:06;;;;;;;;;6.25;5.00;;;;;22.05;42.25;102532.81;4972925;28;45462;-67
2021/11/20 08:22:31;;;;;;;;;4.75;4.75;;;;;22.04;41.76;102534.63;4973168;28;45466;-67
2021/11/20 08:24:56;;;;;;;;;4.25;4.00;;;;;22.08;42.16;102527.25;4973039;28;46181;-67
2021/11/20 08:27:22;;;;;;;;;5.75;5.75;;;;;22.09;42.20;102533.41;4975061;28;45434;-67
2021/11/20 08:29:47;;;;;;;;;4.75;3.75;;;;;22.09;41.77;102523.63;4972459;28;45520;-67
2021/11/20 08:32:13;;;;;;;;;3.50;3.50;;;;;22.08;41.67;102519.31;4972787;28;46801;-67
2021/11/20 08:34:40;;;;;;;;;6.50;5.00;;;;;22.10;41.78;102520.00;4972979;28;46246;-67
2021/11/20 08:37:07;;;;;;;;;3.00;3.00;;;;;22.10;42.09;102511.19;4973129;28;45520;-67
2021/11/20 08:39:33;;;;;;;;;5.00;5.00;;;;;22.09;41.84;102509.53;4973743;28;45449;-67
2021/11/20 08:41:59;;;;;;;;;6.25;5.25;;;;;22.10;41.74;102509.38;4974496;28;45303;-67
2021/11/20 08:44:26;;;;;;;;;7.75;6.25;;;;;22.09;42.06;102497.13;4972765;28;45378;-67
2021/11/20 08:46:51;;;;;;;;;5.75;5.00;;;;;22.09;41.63;102504.25;4972517;28;45453;-68
2021/11/20 08:49:17;;;;;;;;;5.00;5.00;;;;;22.10;41.90;102508.53;4971742;28;45389;-67
2021/11/20 08:51:45;;;;;;;;;6.25;5.00;;;;;22.03;41.51;102493.22;4973029;28;45338;-67
2021/11/20 08:54:11;;;;;;;;;4.25;4.25;;;;;22.07;41.65;102499.06;4974724;28;46458;-68
2021/11/20 08:56:43;;;;;;;;;5.75;4.75;;;;;22.05;41.57;102499.22;4972730;28;45494;-67
2021/11/20 08:59:12;;;;;;;;;5.67;5.67;;;;;22.07;41.79;102497.25;4972680;28;45545;-67
2021/11/20 09:01:42;;;;;;;;;4.50;4.50;;;;;22.07;41.95;102491.13;4972453;28;45450;-67
2021/11/20 09:04:24;;;;;;;;;6.75;6.25;;;;;22.06;41.87;102489.44;4972536;28;47278;-67
2021/11/20 09:07:12;;;;;;;;;6.50;5.00;;;;;22.06;41.59;102495.59;4971925;28;45564;-67
2021/11/20 09:09:50;;;;;;;;;4.25;4.25;;;;;22.05;41.77;102485.97;4971366;28;45541;-67
2021/11/20 09:12:24;;;;;;;;;4.75;4.75;;;;;22.05;41.45;102491.25;4974576;28;45383;-67
2021/11/20 09:14:57;;;;;;;;;4.25;4.25;;;;;22.03;41.85;102479.97;4973041;28;46753;-67
2021/11/20 09:17:23;;;;;;;;;5.75;5.75;;;;;22.01;41.78;102467.84;4972141;28;45380;-67
2021/11/20 09:19:50;;;;;;;;;4.75;4.75;;;;;21.99;41.78;102465.31;4972404;28;45420;-67
2021/11/20 09:22:16;;;;;;;;;6.50;5.00;;;;;22.03;41.82;102469.38;4972520;28;45417;-67
2021/11/20 09:24:44;;;;;;;;;7.00;4.00;;;;;22.04;41.59;102465.72;4972542;28;45398;-67
2021/11/20 09:27:10;;;;;;;;;6.25;5.25;;;;;22.02;41.99;102466.84;4974463;28;45350;-67
2021/11/20 09:29:36;;;;;;;;;3.75;3.75;;;;;22.04;41.51;102459.59;4971090;28;45369;-67
2021/11/20 09:32:03;;;;;;;;;5.00;5.00;;;;;22.03;41.75;102456.13;4972208;28;49619;-67
2021/11/20 09:34:29;;;;;;;;;5.00;5.00;;;;;22.03;41.40;102455.28;4972156;28;47238;-67
2021/11/20 09:36:57;;;;;;;;;5.25;4.25;;;;;22.04;41.29;102452.47;4971462;28;45339;-67
2021/11/20 09:39:26;;;;;;;;;6.25;6.25;;;;;22.04;41.37;102460.41;4974157;28;45382;-67
2021/11/20 09:42:26;;;;;;;;;5.00;4.25;;;;;22.03;41.64;102458.75;4971669;28;45351;-67
2021/11/20 09:44:55;;;;;;;;;6.50;4.50;;;;;22.02;41.91;102458.88;4972334;28;46495;-67
2021/11/20 09:47:31;;;;;;;;;4.00;4.00;;;;;22.02;41.60;102457.09;4970850;28;45410;-67
2021/11/20 09:50:06;;;;;;;;;4.25;4.00;;;;;22.02;41.64;102461.53;4972332;28;45304;-67
2021/11/20 09:52:31;;;;;;;;;4.25;4.25;;;;;22.00;41.99;102455.56;4972301;28;45411;-67
2021/11/20 09:54:57;;;;;;;;;4.50;4.25;;;;;22.00;41.94;102461.69;4972083;28;45455;-67
2021/11/20 09:57:27;;;;;;;;;4.50;4.50;;;;;22.03;41.29;102460.56;4974094;28;45448;-67
2021/11/20 09:59:59;;;;;;;;;7.50;6.50;;;;;22.04;41.76;102468.38;4972387;28;45422;-67
2021/11/20 10:02:29;;;;;;;;;6.25;4.50;;;;;22.04;41.32;102457.78;4972027;28;45460;-67
2021/11/20 10:05:16;;;;;;;;;4.00;4.00;;;;;22.05;41.65;102451.50;4971889;28;46244;-67
2021/11/20 10:07:47;;;;;;;;;3.00;3.00;;;;;22.05;41.47;102446.22;4970439;28;45342;-67
2021/11/20 10:10:15;;;;;;;;;8.00;8.00;;;;;22.07;41.43;102451.34;4972067;28;45449;-68
2021/11/20 10:12:45;;;;;;;;;5.25;5.25;;;;;22.07;41.56;102449.53;4972093;28;45213;-67
2021/11/20 10:15:30;;;;;;;;;6.25;5.50;;;;;22.07;41.28;102446.91;4973461;28;45899;-67
2021/11/20 10:18:15;;;;;;;;;5.50;4.00;;;;;22.09;41.69;102438.81;4972596;28;45544;-67
2021/11/20 10:20:41;;;;;;;;;7.00;5.25;;;;;22.07;41.56;102438.94;4971521;28;45563;-67
2021/11/20 10:23:09;;;;;;;;;4.00;4.00;;;;;22.07;41.13;102431.00;4971752;28;45493;-67
2021/11/20 10:25:49;;;;;;;;;4.75;4.75;;;;;22.07;41.04;102438.94;4970252;28;45558;-67
2021/11/20 10:28:51;;;;;;;;;5.00;5.00;;;;;22.06;41.46;102434.63;4971530;28;45344;-67
2021/11/20 10:31:36;;;;;;;;;4.75;4.75;;;;;22.06;41.12;102433.78;4958594;28;45494;-67
2021/11/20 10:34:07;;;;;;;;;5.00;5.00;;;;;22.05;40.92;102434.75;4956417;28;45217;-68
2021/11/20 10:36:51;;;;;;;;;5.00;4.75;;;;;22.05;41.19;102429.47;4972185;28;45974;-67
2021/11/20 10:39:25;;;;;;;;;5.00;4.50;;;;;22.05;41.62;102424.16;4973283;28;45406;-67
2021/11/20 10:41:53;;;;;;;;;1.50;1.00;;;;;22.02;41.15;102424.44;4970928;28;45430;-67
2021/11/20 10:44:33;;;;;;;;;8.00;6.75;;;;;22.03;41.13;102420.81;4971206;28;45356;-67
2021/11/20 10:47:06;;;;;;;;;7.25;4.50;;;;;22.02;41.45;102411.19;4969800;28;45516;-67
2021/11/20 10:50:02;;;;;;;;;4.00;4.00;;;;;22.02;41.60;102413.84;4971203;28;45470;-67
2021/11/20 10:53:04;;;;;;;;;6.00;6.00;;;;;22.03;41.60;102402.25;4971446;28;45372;-67
2021/11/20 10:55:29;;;;;;;;;5.00;4.00;;;;;22.02;41.60;102395.28;4971306;28;45513;-67
2021/11/20 10:58:19;;;;;;;;;5.00;5.00;;;;;22.02;41.21;102387.31;4971001;28;46143;-67
2021/11/20 11:01:26;;;;;;;;;4.00;4.00;;;;;22.01;41.37;102375.06;4971045;28;45386;-67
2021/11/20 11:04:29;;;;;;;;;5.00;5.00;;;;;22.01;41.24;102373.28;4951863;28;45363;-67
2021/11/20 11:07:03;;;;;;;;;6.75;6.75;;;;;22.00;41.56;102368.09;4956318;28;45359;-67
2021/11/20 11:09:38;;;;;;;;;6.00;5.00;;;;;21.96;41.63;102360.41;4971853;28;46179;-67
2021/11/20 11:12:42;;;;;;;;;3.50;3.25;;;;;22.00;41.16;102355.69;4970761;28;45348;-67
2021/11/20 11:15:16;;;;;;;;;4.50;4.50;;;;;22.00;41.12;102346.88;4971643;28;45505;-67
2021/11/20 11:17:41;;;;;;;;;6.50;6.50;;;;;21.99;41.03;102346.03;4972163;28;45565;-67
2021/11/20 11:20:18;;;;;;;;;3.75;3.75;;;;;22.00;41.11;102349.53;4970517;28;47147;-67
2021/11/20 11:22:50;;;;;;;;;4.75;4.75;;;;;22.00;41.54;102338.94;4970937;28;45482;-67
2021/11/20 11:25:24;;;;;;;;;5.00;5.00;;;;;21.99;41.71;102338.09;4969372;28;45213;-67
2021/11/20 11:27:49;;;;;;;;;5.50;5.00;;;;;21.99;41.35;102334.63;4970755;28;45439;-67
2021/11/20 11:30:29;;;;;;;;;4.00;4.00;;;;;21.99;41.33;102327.50;4972671;28;46259;-67
2021/11/20 11:32:56;;;;;;;;;5.75;5.50;;;;;21.99;41.11;102324.84;4971794;28;45412;-67
2021/11/20 11:35:41;;;;;;;;;4.50;4.50;;;;;21.99;41.17;102319.53;4970639;28;45319;-67